Time;durP1;ratioP1;P1;durP2;ratioP2;P2;SDS_P1;SDS_P2;PMS_P1;PMS_P2;Temp;Humidity;BMP_temperature;BMP_pressure;BME280_temperature;BME280_humidity;BME280_pressure;Samples;Min_cycle;Max_cycle;Signal;HPM_P1;HPM_P2
2021/03/20 00:02:00;;;;;;;138.63;62.22;;;;;;;19.18;64.45;103291.59;4962850;28;20121;-66
2021/03/20 00:04:26;;;;;;;137.88;61.90;;;;;;;19.17;64.13;103295.25;4934103;28;20039;-65
2021/03/20 00:06:54;;;;;;;143.15;63.25;;;;;;;19.17;64.11;103295.25;4967725;28;20039;-66
2021/03/20 00:09:25;;;;;;;134.98;60.58;;;;;;;19.17;64.23;103289.91;4968401;28;20044;-65
2021/03/20 00:11:51;;;;;;;140.98;62.90;;;;;;;19.17;64.23;103288.09;4966698;28;20074;-65
2021/03/20 00:14:20;;;;;;;130.55;58.97;;;;;;;19.16;64.56;103294.41;4966404;28;20046;-65
2021/03/20 00:16:46;;;;;;;139.60;60.67;;;;;;;19.15;64.46;103288.25;4970857;28;20031;-65
2021/03/20 00:19:12;;;;;;;139.10;60.53;;;;;;;19.17;64.24;103289.91;4979700;28;20112;-66
2021/03/20 00:21:38;;;;;;;132.10;58.03;;;;;;;19.15;64.40;103282.06;4962664;28;20042;-65
2021/03/20 00:24:04;;;;;;;125.15;56.85;;;;;;;19.15;64.82;103290.91;4969800;28;20046;-65
2021/03/20 00:26:30;;;;;;;125.50;57.75;;;;;;;19.17;64.64;103287.25;4945935;28;20035;-66
2021/03/20 00:28:56;;;;;;;121.88;56.22;;;;;;;19.15;64.63;103285.56;4969742;28;20031;-65
2021/03/20 00:31:22;;;;;;;119.15;54.65;;;;;;;19.16;64.78;103289.06;4970459;28;20339;-65
2021/03/20 00:33:48;;;;;;;125.80;56.15;;;;;;;19.15;64.87;103290.06;4969923;28;20530;-66
2021/03/20 00:36:14;;;;;;;125.30;54.83;;;;;;;19.17;64.87;103295.25;4958024;28;20409;-65
2021/03/20 00:38:40;;;;;;;117.88;53.63;;;;;;;19.15;65.11;103295.38;4970165;28;20658;-65
2021/03/20 00:41:08;;;;;;;128.77;54.15;;;;;;;19.14;65.14;103297.19;4968517;28;20034;-65
2021/03/20 00:43:34;;;;;;;112.32;52.30;;;;;;;19.15;65.02;103290.06;4968542;28;20069;-65
2021/03/20 00:46:00;;;;;;;109.72;52.30;;;;;;;19.16;64.99;103291.75;4951639;28;20475;-65
2021/03/20 00:48:31;;;;;;;112.45;51.63;;;;;;;19.14;64.78;103294.53;4969998;28;20039;-65
2021/03/20 00:50:58;;;;;;;115.75;52.53;;;;;;;19.13;65.04;103286.69;4970016;28;20030;-65
2021/03/20 00:53:24;;;;;;;113.15;50.97;;;;;;;19.13;64.86;103295.50;4970018;28;20031;-65
2021/03/20 00:55:50;;;;;;;104.45;49.25;;;;;;;19.13;64.90;103292.84;4969119;28;20030;-65
2021/03/20 00:58:38;;;;;;;109.95;50.70;;;;;;;19.09;65.10;103288.78;4968139;28;20034;-65
2021/03/20 01:01:11;;;;;;;109.22;48.50;;;;;;;19.12;64.85;103290.34;4957854;28;20458;-65
2021/03/20 01:03:38;;;;;;;103.13;46.30;;;;;;;19.13;64.95;103292.00;4970438;28;20023;-65
2021/03/20 01:06:06;;;;;;;104.07;48.75;;;;;;;19.12;64.86;103295.66;4969965;28;20019;-65
2021/03/20 01:08:32;;;;;;;99.63;47.25;;;;;;;19.12;64.50;103293.84;4967354;28;20113;-65
2021/03/20 01:10:57;;;;;;;101.13;46.65;;;;;;;19.12;64.64;103291.16;4970322;28;20229;-65
2021/03/20 01:13:23;;;;;;;102.03;46.50;;;;;;;19.11;64.65;103292.16;4967637;28;20046;-65
2021/03/20 01:15:48;;;;;;;94.90;46.13;;;;;;;19.11;64.51;103297.47;4960689;28;20038;-65
2021/03/20 01:18:14;;;;;;;92.90;45.85;;;;;;;19.10;64.68;103298.44;4970542;28;20035;-65
2021/03/20 01:20:41;;;;;;;98.40;45.83;;;;;;;19.10;64.56;103298.44;4964399;28;20043;-65
2021/03/20 01:23:07;;;;;;;85.60;43.30;;;;;;;19.08;64.57;103289.72;4968829;28;20039;-65
2021/03/20 01:25:32;;;;;;;91.80;44.65;;;;;;;19.08;64.56;103297.72;4969309;28;20046;-65
2021/03/20 01:27:58;;;;;;;91.22;45.05;;;;;;;19.08;64.78;103297.72;4968948;28;20646;-65
2021/03/20 01:30:29;;;;;;;90.25;44.33;;;;;;;19.07;64.38;103301.34;4969898;28;20038;-65
2021/03/20 01:32:55;;;;;;;87.97;42.00;;;;;;;19.08;64.68;103297.72;4968369;28;20058;-64
2021/03/20 01:35:21;;;;;;;89.75;43.30;;;;;;;19.08;64.59;103296.88;4970023;28;20478;-65
2021/03/20 01:37:47;;;;;;;80.22;39.05;;;;;;;19.07;64.33;103304.00;4969163;28;20124;-65
2021/03/20 01:40:15;;;;;;;88.70;40.60;;;;;;;19.08;64.37;103304.84;4967743;28;20071;-65
2021/03/20 01:42:42;;;;;;;83.53;41.28;;;;;;;19.07;64.46;103309.34;4965788;28;20118;-65
2021/03/20 01:45:35;;;;;;;82.97;40.22;;;;;;;19.08;64.45;103311.00;4965606;28;20556;-65
2021/03/20 01:48:28;;;;;;;78.95;38.95;;;;;;;19.05;64.45;103305.97;4957461;28;20038;-65
2021/03/20 01:51:00;;;;;;;81.80;37.97;;;;;;;19.04;64.15;103306.94;4969377;28;20043;-65
2021/03/20 01:53:43;;;;;;;79.60;39.63;;;;;;;19.05;64.49;103311.28;4964751;28;20031;-65
2021/03/20 01:56:22;;;;;;;75.78;38.53;;;;;;;19.05;64.28;103311.28;4969151;28;20045;-65
2021/03/20 01:58:50;;;;;;;72.65;38.03;;;;;;;19.04;64.24;103309.59;4965791;28;20177;-65
2021/03/20 02:01:26;;;;;;;75.32;37.83;;;;;;;19.03;64.54;103307.91;4968731;28;20039;-64
2021/03/20 02:03:54;;;;;;;77.32;38.85;;;;;;;19.04;64.67;103300.78;4964544;28;20086;-65
2021/03/20 02:06:21;;;;;;;74.10;37.53;;;;;;;19.05;64.63;103302.47;4965563;28;20122;-64
2021/03/20 02:08:48;;;;;;;75.32;37.25;;;;;;;19.04;64.68;103295.47;4948324;28;20391;-65
2021/03/20 02:11:25;;;;;;;71.47;36.55;;;;;;;19.03;64.66;103294.63;4969035;28;20137;-65
2021/03/20 02:14:07;;;;;;;67.25;37.10;;;;;;;19.03;64.75;103297.28;4966917;28;20046;-64
2021/03/20 02:16:47;;;;;;;71.20;36.20;;;;;;;19.03;64.67;103301.75;4966223;28;20046;-65
2021/03/20 02:19:50;;;;;;;68.53;35.72;;;;;;;19.01;64.32;103298.38;4969910;28;20065;-65
2021/03/20 02:22:24;;;;;;;63.10;33.88;;;;;;;19.01;64.39;103296.56;4964218;28;20034;-64
2021/03/20 02:25:17;;;;;;;66.85;35.40;;;;;;;19.00;64.70;103292.22;4969146;28;20038;-65
2021/03/20 02:28:26;;;;;;;67.50;33.40;;;;;;;18.99;64.57;103282.56;4959634;28;20062;-65
2021/03/20 02:31:13;;;;;;;64.22;33.40;;;;;;;19.01;64.38;103285.09;4963677;28;20474;-64
2021/03/20 02:33:47;;;;;;;61.45;34.33;;;;;;;19.01;64.29;103288.59;4968977;28;20066;-65
2021/03/20 02:36:36;;;;;;;67.72;34.40;;;;;;;18.99;64.43;103287.03;4966939;28;20397;-64
2021/03/20 02:39:13;;;;;;;58.03;32.25;;;;;;;18.99;64.39;103282.56;4962017;28;20118;-65
2021/03/20 02:41:50;;;;;;;62.53;32.65;;;;;;;19.00;64.32;103283.41;4963442;28;20729;-65
2021/03/20 02:44:20;;;;;;;59.78;32.30;;;;;;;19.00;64.46;103281.59;4961892;28;20034;-65
2021/03/20 02:47:06;;;;;;;60.65;31.50;;;;;;;18.97;64.19;103281.88;4964782;28;20106;-65
2021/03/20 02:49:34;;;;;;;55.67;31.08;;;;;;;18.99;64.24;103279.06;4966945;28;20054;-64
2021/03/20 02:52:03;;;;;;;57.63;32.08;;;;;;;18.99;64.14;103276.41;4964364;28;20038;-64
2021/03/20 02:54:54;;;;;;;59.15;32.85;;;;;;;18.98;64.22;103278.22;4969157;28;20039;-65
2021/03/20 02:57:24;;;;;;;58.03;30.10;;;;;;;18.99;64.14;103274.59;4958328;28;20031;-65
2021/03/20 03:00:05;;;;;;;56.00;28.75;;;;;;;18.98;64.18;103277.38;4961697;28;20422;-65
2021/03/20 03:02:32;;;;;;;55.60;30.25;;;;;;;18.99;63.78;103269.25;4967622;28;20093;-65
2021/03/20 03:05:04;;;;;;;55.20;29.63;;;;;;;18.98;63.85;103269.41;4964656;28;20047;-65
2021/03/20 03:07:39;;;;;;;49.45;28.08;;;;;;;18.98;63.68;103258.75;4968401;28;20141;-65
2021/03/20 03:10:18;;;;;;;50.78;28.17;;;;;;;18.97;64.04;103265.91;4966437;28;20031;-64
2021/03/20 03:12:53;;;;;;;53.78;29.75;;;;;;;18.97;63.96;103259.75;4966129;28;20058;-65
2021/03/20 03:15:25;;;;;;;50.47;27.38;;;;;;;18.97;63.75;103257.91;4966628;28;20089;-65
2021/03/20 03:17:58;;;;;;;51.65;28.58;;;;;;;18.97;64.04;103255.25;4969309;28;20110;-65
2021/03/20 03:20:30;;;;;;;51.47;27.23;;;;;;;18.96;63.79;103258.91;4967586;28;20086;-65
2021/03/20 03:23:07;;;;;;;48.38;28.77;;;;;;;18.95;63.70;103257.22;4959181;28;20027;-65
2021/03/20 03:25:37;;;;;;;48.58;25.92;;;;;;;18.96;63.60;103256.25;4967317;28;20466;-65
2021/03/20 03:28:07;;;;;;;49.60;26.73;;;;;;;18.97;63.91;103260.59;4970266;28;20573;-65
2021/03/20 03:30:35;;;;;;;47.25;26.52;;;;;;;18.96;63.66;103250.06;4972589;28;20042;-65
2021/03/20 03:33:21;;;;;;;48.75;27.00;;;;;;;18.94;63.78;103258.19;4958417;28;20039;-65
2021/03/20 03:35:51;;;;;;;46.40;26.00;;;;;;;18.96;63.68;103247.41;4972612;28;20030;-65
2021/03/20 03:38:43;;;;;;;47.38;25.60;;;;;;;18.93;63.75;103253.81;4970598;28;20050;-65
2021/03/20 03:41:11;;;;;;;43.70;25.88;;;;;;;18.95;63.62;103254.56;4971194;28;20153;-65
2021/03/20 03:43:37;;;;;;;50.30;26.30;;;;;;;18.94;63.79;103252.88;4971951;28;20035;-65
2021/03/20 03:46:03;;;;;;;46.60;25.90;;;;;;;18.95;63.39;103259.03;4971259;28;20038;-65
2021/03/20 03:48:29;;;;;;;43.35;25.45;;;;;;;18.95;63.62;103254.56;4972057;28;20030;-64
2021/03/20 03:51:05;;;;;;;45.20;24.40;;;;;;;18.94;63.58;103252.88;4969677;28;20401;-65
2021/03/20 03:53:31;;;;;;;44.63;25.15;;;;;;;18.95;63.71;103256.38;4959026;28;20027;-65
2021/03/20 03:56:01;;;;;;;41.10;24.63;;;;;;;18.95;63.64;103251.06;4969844;28;20270;-65
2021/03/20 03:59:02;;;;;;;41.75;23.55;;;;;;;18.91;63.67;103250.44;4973842;28;20042;-65
2021/03/20 04:01:46;;;;;;;41.22;22.98;;;;;;;18.92;63.40;103257.47;4940309;28;20053;-65
2021/03/20 04:04:45;;;;;;;43.42;24.08;;;;;;;18.91;63.49;103250.44;4964604;28;20031;-65
2021/03/20 04:07:28;;;;;;;39.05;22.65;;;;;;;18.92;63.48;103248.63;4983345;28;20139;-65
2021/03/20 04:10:03;;;;;;;39.45;22.45;;;;;;;18.91;63.28;103241.63;4970964;28;20046;-65
2021/03/20 04:12:50;;;;;;;39.80;22.70;;;;;;;18.91;63.19;103239.81;4969061;28;20034;-65
2021/03/20 04:15:22;;;;;;;38.72;22.13;;;;;;;18.91;63.23;103244.28;4976927;28;20030;-65
2021/03/20 04:18:02;;;;;;;35.90;22.20;;;;;;;18.90;63.16;103248.78;4961441;28;20098;-65
2021/03/20 04:20:36;;;;;;;37.60;21.58;;;;;;;18.90;63.13;103246.13;4969577;28;20037;-65
2021/03/20 04:23:14;;;;;;;37.17;20.60;;;;;;;18.91;63.35;103241.63;4969724;28;20039;-65
2021/03/20 04:25:45;;;;;;;36.75;21.20;;;;;;;18.92;63.37;103244.16;4968327;28;20541;-65
2021/03/20 04:28:52;;;;;;;36.40;21.92;;;;;;;18.89;63.29;103239.09;4971876;28;20077;-65
2021/03/20 04:31:20;;;;;;;36.17;20.33;;;;;;;18.90;62.95;103237.28;4972886;28;20034;-64
2021/03/20 04:33:57;;;;;;;37.50;21.48;;;;;;;18.88;63.17;103234.78;4965537;28;20039;-65
2021/03/20 04:36:32;;;;;;;35.72;20.15;;;;;;;18.89;63.42;103236.44;4965814;28;20034;-65
2021/03/20 04:38:59;;;;;;;;;;;;;;;18.85;63.17;103246.53;4969967;28;20043;-65
2021/03/20 04:41:26;;;;;;;31.38;19.23;;;;;;;18.89;63.25;103249.75;4971293;28;19925;-65
2021/03/20 04:43:52;;;;;;;32.15;19.08;;;;;;;18.89;63.22;103247.09;4967830;28;20270;-65
2021/03/20 04:46:24;;;;;;;31.95;19.08;;;;;;;18.89;63.35;103249.75;4969599;28;20161;-65
2021/03/20 04:49:10;;;;;;;33.05;19.17;;;;;;;18.87;63.43;103259.69;4970229;28;20038;-64
2021/03/20 04:51:47;;;;;;;31.90;19.90;;;;;;;18.88;63.12;103255.19;4965696;28;20030;-64
2021/03/20 04:54:19;;;;;;;32.13;18.83;;;;;;;18.88;63.14;103257.88;4973256;28;20038;-65
2021/03/20 04:56:52;;;;;;;32.83;18.77;;;;;;;18.88;62.95;103260.53;4969723;28;20031;-65
2021/03/20 04:59:43;;;;;;;32.30;19.35;;;;;;;18.87;63.45;103256.19;4968864;28;20105;-65
2021/03/20 05:02:18;;;;;;;30.83;18.40;;;;;;;18.87;63.14;103257.03;4960447;28;20144;-65
2021/03/20 05:04:46;;;;;;;32.85;18.25;;;;;;;18.88;63.00;103261.38;4971093;28;20038;-64
2021/03/20 05:07:14;;;;;;;31.65;18.05;;;;;;;18.88;63.04;103260.53;4979249;28;20130;-65
2021/03/20 05:09:40;;;;;;;29.65;18.10;;;;;;;18.88;63.05;103258.72;4968622;28;20054;-65
2021/03/20 05:12:27;;;;;;;31.90;18.52;;;;;;;18.84;63.22;103258.13;4968770;28;20511;-65
2021/03/20 05:15:00;;;;;;;28.23;17.05;;;;;;;18.87;63.33;103258.84;4970477;28;20034;-65
2021/03/20 05:17:26;;;;;;;31.77;18.85;;;;;;;18.87;63.25;103262.34;4957614;28;20134;-65
2021/03/20 05:19:52;;;;;;;28.20;17.25;;;;;;;18.87;63.19;103265.00;4969155;28;20117;-64
2021/03/20 05:22:31;;;;;;;27.73;17.48;;;;;;;18.84;63.26;103254.63;4967701;28;20039;-65
2021/03/20 05:24:58;;;;;;;28.75;17.70;;;;;;;18.87;62.83;103256.19;4970684;28;20034;-65
2021/03/20 05:27:31;;;;;;;27.02;16.55;;;;;;;18.85;62.98;103251.84;4966123;28;20137;-65
2021/03/20 05:29:57;;;;;;;28.98;16.75;;;;;;;18.86;63.08;103260.66;4962493;28;20042;-64
2021/03/20 05:32:29;;;;;;;24.33;15.90;;;;;;;18.85;63.09;103259.81;4954032;28;20398;-65
2021/03/20 05:34:56;;;;;;;28.80;15.90;;;;;;;18.87;62.95;103258.84;4969528;28;20035;-65
2021/03/20 05:37:36;;;;;;;26.30;16.15;;;;;;;18.84;63.11;103260.78;4969290;28;20482;-64
2021/03/20 05:40:02;;;;;;;26.10;16.55;;;;;;;18.87;62.90;103258.84;4970374;28;20031;-64
2021/03/20 05:43:13;;;;;;;24.30;15.48;;;;;;;18.81;62.79;103261.06;4965660;28;20035;-65
2021/03/20 05:45:50;;;;;;;25.55;15.18;;;;;;;18.83;62.82;103266.25;4968995;28;20106;-64
2021/03/20 05:48:17;;;;;;;25.13;15.38;;;;;;;18.83;62.93;103275.06;4969444;28;20105;-65
2021/03/20 05:51:01;;;;;;;23.95;15.65;;;;;;;18.85;63.14;103272.28;4967999;28;20031;-65
2021/03/20 05:53:45;;;;;;;23.05;14.70;;;;;;;18.80;62.88;103264.69;4969757;28;20102;-64
2021/03/20 05:56:35;;;;;;;23.50;14.55;;;;;;;18.80;62.63;103270.03;4955941;28;20034;-64
2021/03/20 05:59:22;;;;;;;23.23;14.07;;;;;;;18.80;62.85;103269.19;4959843;28;20042;-64
2021/03/20 06:02:19;;;;;;;22.30;13.98;;;;;;;18.78;62.70;103261.34;4959318;28;20030;-64
2021/03/20 06:04:48;;;;;;;22.60;13.32;;;;;;;18.82;62.97;103254.78;4970367;28;20042;-65
2021/03/20 06:07:45;;;;;;;24.40;14.93;;;;;;;18.79;62.81;103254.19;4976167;28;20513;-65
2021/03/20 06:10:31;;;;;;;23.38;14.00;;;;;;;18.80;62.65;103262.03;4966945;28;20061;-65
2021/03/20 06:13:25;;;;;;;22.58;13.98;;;;;;;18.78;62.92;103261.34;4968301;28;20041;-65
2021/03/20 06:16:03;;;;;;;;;;;;;;;18.75;62.91;103256.25;4956530;28;20038;-65
2021/03/20 06:18:40;;;;;;;22.08;13.60;;;;;;;18.78;62.58;103260.50;4968237;28;19918;-65
2021/03/20 06:21:28;;;;;;;21.92;13.45;;;;;;;18.76;62.65;103260.59;4968083;28;20030;-64
2021/03/20 06:24:16;;;;;;;19.98;13.35;;;;;;;18.76;62.74;103270.41;4968794;28;20176;-64
2021/03/20 06:26:44;;;;;;;20.48;13.02;;;;;;;18.79;63.11;103272.81;4964071;28;20049;-64
2021/03/20 06:29:18;;;;;;;21.10;13.80;;;;;;;18.77;62.85;103272.06;4966635;28;20035;-64
2021/03/20 06:31:49;;;;;;;19.63;12.03;;;;;;;18.78;62.55;103276.44;4969576;28;20035;-65
2021/03/20 06:34:26;;;;;;;20.67;13.45;;;;;;;18.76;62.91;103270.41;4967743;28;20034;-64
2021/03/20 06:37:00;;;;;;;22.15;13.18;;;;;;;18.76;62.83;103273.91;4968236;28;20792;-64
2021/03/20 06:39:33;;;;;;;21.05;12.60;;;;;;;18.78;62.60;103271.13;4968794;28;20031;-64
2021/03/20 06:42:07;;;;;;;18.02;12.27;;;;;;;18.76;62.68;103278.38;4966335;28;20117;-64
2021/03/20 06:44:39;;;;;;;20.95;12.65;;;;;;;18.76;62.65;103275.72;4968046;28;20038;-65
2021/03/20 06:47:23;;;;;;;18.58;12.07;;;;;;;18.75;62.82;103271.38;4969006;28;20077;-65
2021/03/20 06:50:04;;;;;;;19.17;11.77;;;;;;;18.74;62.56;103275.84;4958619;28;20078;-64
2021/03/20 06:52:35;;;;;;;16.13;10.90;;;;;;;18.76;62.76;103278.38;4966337;28;20062;-65
2021/03/20 06:55:18;;;;;;;14.82;10.55;;;;;;;18.76;62.76;103281.88;4968531;28;20039;-65
2021/03/20 06:57:47;;;;;;;19.15;11.25;;;;;;;18.75;62.43;103277.53;4969259;28;20041;-64
2021/03/20 07:00:25;;;;;;;17.98;12.05;;;;;;;18.75;62.38;103279.34;4971528;28;20047;-65
2021/03/20 07:03:22;;;;;;;16.33;10.77;;;;;;;18.72;62.40;103280.47;4971563;28;20031;-65
2021/03/20 07:05:58;;;;;;;17.70;11.00;;;;;;;18.74;62.59;103275.00;4981257;28;20038;-65
2021/03/20 07:08:42;;;;;;;17.90;11.13;;;;;;;18.75;62.71;103284.66;4970082;28;20062;-64
2021/03/20 07:11:20;;;;;;;16.02;10.55;;;;;;;18.73;62.44;103278.63;4972268;28;20051;-65
2021/03/20 07:13:49;;;;;;;18.60;11.45;;;;;;;18.74;62.51;103281.16;4970410;28;20030;-65
2021/03/20 07:16:17;;;;;;;16.77;10.60;;;;;;;18.74;62.61;103288.28;4961881;28;20455;-65
2021/03/20 07:18:54;;;;;;;15.30;10.88;;;;;;;18.73;62.33;103287.44;4969352;28;20023;-65
2021/03/20 07:21:21;;;;;;;15.45;10.30;;;;;;;18.74;62.20;103282.97;4960045;28;20043;-65
2021/03/20 07:24:06;;;;;;;17.02;11.15;;;;;;;18.72;62.30;103291.09;4968744;28;20517;-64
2021/03/20 07:26:47;;;;;;;17.80;10.63;;;;;;;18.73;62.24;103281.28;4970630;28;20110;-65
2021/03/20 07:29:12;;;;;;;16.60;9.82;;;;;;;18.73;62.35;103275.97;4970066;28;20046;-65
2021/03/20 07:31:59;;;;;;;16.02;10.15;;;;;;;18.71;62.40;103277.94;4971938;28;20557;-65
2021/03/20 07:34:31;;;;;;;13.77;9.38;;;;;;;18.72;62.28;103274.28;4958433;28;20117;-64
2021/03/20 07:37:13;;;;;;;14.00;9.88;;;;;;;18.70;62.36;103270.94;4972092;28;20042;-65
2021/03/20 07:39:42;;;;;;;15.85;9.98;;;;;;;18.71;62.30;103273.44;4968777;28;20113;-65
2021/03/20 07:42:22;;;;;;;16.65;10.18;;;;;;;18.69;62.17;103280.72;4971717;28;20039;-65
2021/03/20 07:44:48;;;;;;;17.40;10.40;;;;;;;18.71;62.48;103275.28;4970170;28;20627;-65
2021/03/20 07:47:14;;;;;;;15.88;9.35;;;;;;;18.72;62.55;103282.28;4964848;28;20121;-62
2021/03/20 07:49:40;;;;;;;18.08;9.65;;;;;;;18.71;62.07;103284.09;4971050;28;20507;-68
2021/03/20 07:52:27;;;;;;;17.10;9.93;;;;;;;18.69;62.49;103277.22;4970543;28;20035;-69
2021/03/20 07:55:14;;;;;;;17.52;9.90;;;;;;;18.69;62.63;103278.06;4970386;28;20101;-65
2021/03/20 07:57:57;;;;;;;15.02;9.77;;;;;;;18.70;62.82;103281.56;4967301;28;20481;-63
2021/03/20 08:00:32;;;;;;;17.63;9.85;;;;;;;18.70;62.92;103281.56;4969010;28;20049;-64
2021/03/20 08:03:18;;;;;;;15.10;9.02;;;;;;;18.70;62.95;103279.75;4968776;28;20057;-64
2021/03/20 08:05:44;;;;;;;15.73;10.27;;;;;;;18.72;62.61;103284.94;4965712;28;20039;-65
2021/03/20 08:08:24;;;;;;;15.80;9.50;;;;;;;18.71;62.81;103280.59;4977978;28;20534;-66
2021/03/20 08:10:54;;;;;;;13.77;9.23;;;;;;;18.71;63.33;103281.44;4987108;28;20046;-66
2021/03/20 08:13:30;;;;;;;21.45;9.80;;;;;;;18.71;63.30;103280.59;4969258;28;20039;-66
2021/03/20 08:15:57;;;;;;;17.83;10.10;;;;;;;18.71;63.35;103278.78;4973779;28;20517;-66
2021/03/20 08:18:26;;;;;;;15.57;10.13;;;;;;;18.72;63.91;103277.78;4970938;28;20510;-67
2021/03/20 08:21:01;;;;;;;21.55;10.05;;;;;;;18.71;63.81;103280.59;4971066;28;20235;-68
2021/03/20 08:23:33;;;;;;;19.17;11.32;;;;;;;18.71;64.19;103284.09;4970747;28;20064;-69
2021/03/20 08:26:23;;;;;;;19.65;10.27;;;;;;;18.72;63.97;103285.78;4967038;28;20043;-69
2021/03/20 08:28:51;;;;;;;17.17;9.88;;;;;;;18.73;64.19;103291.94;4967805;28;20066;-67
2021/03/20 08:31:38;;;;;;;22.25;10.13;;;;;;;18.72;64.16;103288.44;4970374;28;20031;-66
2021/03/20 08:34:11;;;;;;;22.38;10.45;;;;;;;18.71;64.40;103285.91;4969278;28;20059;-67
2021/03/20 08:37:02;;;;;;;21.73;11.38;;;;;;;18.71;64.89;103288.56;4966081;28;20101;-67
2021/03/20 08:40:07;;;;;;;24.02;11.32;;;;;;;18.70;65.46;103289.53;4957632;28;20031;-67
2021/03/20 08:42:50;;;;;;;17.33;10.63;;;;;;;18.71;65.11;103294.72;4969128;28;20042;-67
2021/03/20 08:45:31;;;;;;;25.57;13.93;;;;;;;18.70;65.61;103298.34;4967680;28;20126;-67
2021/03/20 08:48:33;;;;;;;25.23;14.75;;;;;;;18.69;66.10;103294.00;4967984;28;20027;-68
2021/03/20 08:51:02;;;;;;;23.40;13.48;;;;;;;18.72;66.16;103298.22;4968769;28;20394;-68
2021/03/20 08:53:48;;;;;;;29.23;14.65;;;;;;;18.71;66.27;103291.22;4967685;28;20851;-68
2021/03/20 08:56:13;;;;;;;27.40;14.77;;;;;;;18.73;66.33;103287.44;4968367;28;20035;-66
2021/03/20 08:58:56;;;;;;;25.20;14.45;;;;;;;18.72;66.79;103299.06;4968070;28;20050;-66
2021/03/20 09:01:41;;;;;;;22.67;14.77;;;;;;;18.73;66.83;103289.28;4971941;28;20052;-67
2021/03/20 09:04:27;;;;;;;24.77;14.52;;;;;;;18.73;67.02;103287.44;4969665;28;20376;-68
2021/03/20 09:06:54;;;;;;;25.17;14.40;;;;;;;18.74;66.78;103293.63;4978987;28;20145;-67
2021/03/20 09:09:33;;;;;;;24.63;15.57;;;;;;;18.74;66.38;103293.63;4980850;28;20049;-67
2021/03/20 09:12:24;;;;;;;24.88;14.98;;;;;;;18.71;67.04;103294.72;4979352;28;20062;-67
2021/03/20 09:14:50;;;;;;;23.02;14.75;;;;;;;18.73;66.76;103299.91;4979268;28;20045;-69
2021/03/20 09:17:18;;;;;;;24.25;14.68;;;;;;;18.72;66.65;103299.06;4969668;28;20030;-67
2021/03/20 09:19:52;;;;;;;21.63;14.75;;;;;;;18.70;66.22;103300.19;4973968;28;20098;-67
2021/03/20 09:22:21;;;;;;;22.85;15.00;;;;;;;18.72;66.13;103303.53;4965523;28;20173;-65
2021/03/20 09:24:57;;;;;;;22.67;14.85;;;;;;;18.71;65.98;103296.53;4966463;28;20050;-68
2021/03/20 09:27:58;;;;;;;24.95;15.77;;;;;;;18.70;65.46;103300.19;4959559;28;20038;-67
2021/03/20 09:30:36;;;;;;;19.85;13.73;;;;;;;18.69;65.36;103298.50;4948634;28;20089;-69
2021/03/20 09:33:06;;;;;;;20.23;14.35;;;;;;;18.71;64.94;103299.19;4963263;28;20038;-67
2021/03/20 09:35:45;;;;;;;25.55;15.52;;;;;;;18.68;64.57;103302.13;4969318;28;20134;-67
2021/03/20 09:38:12;;;;;;;28.13;14.75;;;;;;;18.70;64.53;103301.00;4964014;28;20130;-67
2021/03/20 09:40:49;;;;;;;20.35;14.32;;;;;;;18.71;64.20;103302.69;4964563;28;20118;-67
2021/03/20 09:43:23;;;;;;;20.13;14.15;;;;;;;18.70;64.05;103300.19;4963324;28;20486;-67
2021/03/20 09:46:27;;;;;;;23.10;14.15;;;;;;;18.69;63.68;103301.16;4966541;28;20039;-67
2021/03/20 09:48:54;;;;;;;19.00;13.23;;;;;;;18.72;63.95;103308.88;4962955;28;20046;-68
2021/03/20 09:51:51;;;;;;;22.80;14.63;;;;;;;18.70;63.55;103306.34;4966168;28;20038;-67
2021/03/20 09:54:26;;;;;;;22.65;13.40;;;;;;;18.70;63.41;103306.34;4964742;28;20034;-67
2021/03/20 09:56:54;;;;;;;24.33;13.82;;;;;;;18.72;63.38;103304.38;4964750;28;20146;-66
2021/03/20 09:59:40;;;;;;;25.00;12.80;;;;;;;18.70;63.85;103311.66;4962432;28;20090;-66
2021/03/20 10:02:31;;;;;;;23.38;12.65;;;;;;;18.72;63.33;103306.19;4954710;28;20114;-67
2021/03/20 10:05:24;;;;;;;22.27;12.30;;;;;;;18.71;63.53;103308.03;4966942;28;20041;-67
2021/03/20 10:08:20;;;;;;;22.33;12.77;;;;;;;18.70;63.35;103306.34;4967922;28;20073;-66
2021/03/20 10:10:49;;;;;;;18.67;12.10;;;;;;;18.74;63.46;103305.09;4965703;28;20047;-67
2021/03/20 10:13:42;;;;;;;17.05;11.77;;;;;;;18.71;63.55;103308.03;4964482;28;20034;-68
2021/03/20 10:16:21;;;;;;;17.92;10.90;;;;;;;18.72;63.33;103315.03;4963281;28;20045;-66
2021/03/20 10:19:11;;;;;;;19.13;11.52;;;;;;;18.72;63.03;103314.19;4964566;28;20114;-69
2021/03/20 10:21:36;;;;;;;22.50;11.55;;;;;;;18.74;63.02;103307.75;4960888;28;20054;-69
2021/03/20 10:24:19;;;;;;;21.88;11.85;;;;;;;18.73;63.78;103310.53;4948132;28;20045;-69
2021/03/20 10:27:02;;;;;;;19.17;11.88;;;;;;;18.74;63.44;103304.25;4966386;28;20575;-69
2021/03/20 10:29:35;;;;;;;21.70;13.02;;;;;;;18.75;63.96;103304.13;4961822;28;20117;-68
2021/03/20 10:32:07;;;;;;;19.42;11.80;;;;;;;18.77;63.78;103302.16;4974005;28;20057;-67
2021/03/20 10:34:54;;;;;;;19.40;12.63;;;;;;;18.75;63.59;103296.13;4967634;28;20157;-67
2021/03/20 10:37:22;;;;;;;20.65;12.38;;;;;;;18.78;63.93;103295.91;4968277;28;20042;-68
2021/03/20 10:40:01;;;;;;;17.48;11.52;;;;;;;18.80;63.86;103295.78;4968932;28;20089;-69
2021/03/20 10:42:32;;;;;;;18.55;11.20;;;;;;;18.79;64.18;103300.25;4966498;28;20041;-68
2021/03/20 10:45:02;;;;;;;18.73;11.68;;;;;;;18.81;64.27;103303.63;4967192;28;20105;-64
2021/03/20 10:47:32;;;;;;;22.65;11.95;;;;;;;18.81;64.09;103297.44;4966044;28;20027;-66
2021/03/20 10:50:06;;;;;;;24.80;12.98;;;;;;;18.80;63.91;103298.44;4964515;28;20050;-65
2021/03/20 10:52:35;;;;;;;22.55;13.93;;;;;;;18.79;63.29;103300.25;4966138;28;20178;-66
2021/03/20 10:55:23;;;;;;;24.50;14.50;;;;;;;18.75;62.29;103300.63;4971549;28;20039;-66
2021/03/20 10:57:51;;;;;;;21.88;13.50;;;;;;;18.74;61.41;103298.94;4971517;28;20200;-65
2021/03/20 11:00:39;;;;;;;21.58;12.93;;;;;;;18.68;60.60;103287.00;4972541;28;20169;-65
2021/03/20 11:03:22;;;;;;;22.08;13.15;;;;;;;18.62;60.23;103276.88;4970871;28;20129;-66
2021/03/20 11:05:48;;;;;;;19.95;12.82;;;;;;;18.61;59.74;103272.50;4982148;28;20034;-65
2021/03/20 11:08:22;;;;;;;19.70;12.80;;;;;;;18.57;59.45;103281.72;4970018;28;20062;-66
2021/03/20 11:10:52;;;;;;;19.52;13.05;;;;;;;18.53;59.24;103275.84;4971273;28;20222;-66
2021/03/20 11:13:17;;;;;;;19.23;12.27;;;;;;;18.50;58.76;103268.13;4964442;28;20394;-65
2021/03/20 11:15:47;;;;;;;16.25;12.63;;;;;;;18.47;58.26;103275.53;4965762;28;20027;-65
2021/03/20 11:18:23;;;;;;;17.65;12.45;;;;;;;18.45;57.93;103267.66;4960954;28;20054;-65
2021/03/20 11:20:49;;;;;;;17.73;12.05;;;;;;;18.45;57.79;103269.47;4959270;28;20061;-65
2021/03/20 11:23:36;;;;;;;15.32;10.95;;;;;;;18.41;57.40;103268.03;4971762;28;20459;-64
2021/03/20 11:26:14;;;;;;;14.52;11.07;;;;;;;18.40;57.57;103272.53;4970779;28;20050;-64
2021/03/20 11:28:40;;;;;;;15.13;9.98;;;;;;;18.42;57.11;103265.25;4970024;28;20058;-64
2021/03/20 11:31:06;;;;;;;12.73;9.05;;;;;;;18.40;56.93;103261.88;4977817;28;20126;-64
2021/03/20 11:33:39;;;;;;;12.48;8.57;;;;;;;18.41;56.36;103271.53;4976467;28;20039;-65
2021/03/20 11:36:08;;;;;;;11.50;8.38;;;;;;;18.41;56.18;103266.22;4972104;28;20093;-64
2021/03/20 11:38:35;;;;;;;10.70;8.25;;;;;;;18.42;55.98;103267.91;4971610;28;20126;-67
2021/03/20 11:41:03;;;;;;;11.10;7.63;;;;;;;18.42;55.73;103259.09;4954411;28;20039;-64
2021/03/20 11:43:43;;;;;;;9.50;7.43;;;;;;;18.42;55.94;103259.94;4970585;28;20426;-64
2021/03/20 11:46:11;;;;;;;10.32;7.45;;;;;;;18.44;55.92;103267.78;4979227;28;20855;-66
2021/03/20 11:48:57;;;;;;;10.68;7.00;;;;;;;18.43;56.02;103258.97;4971800;28;20092;-64